createdAt,value
2023-03-27T00:02:20.306Z,100894.09
2023-03-27T00:07:41.161Z,100904.22
2023-03-27T00:13:03.470Z,100902.47
2023-03-27T00:18:25.382Z,100909.25
2023-03-27T00:23:46.735Z,100907.50
2023-03-27T00:29:08.189Z,100899.88
2023-03-27T00:34:29.057Z,100909.16
2023-03-27T00:39:50.400Z,100912.53
2023-03-27T00:45:22.381Z,100912.53
2023-03-27T00:50:44.779Z,100914.31
2023-03-27T00:56:07.682Z,100920.19
2023-03-27T01:01:30.298Z,100913.41
2023-03-27T01:06:54.228Z,100932.84
2023-03-27T01:12:30.509Z,100925.25
2023-03-27T01:18:17.929Z,100932.88
2023-03-27T01:24:00.872Z,100944.78
2023-03-27T01:29:35.961Z,100948.03
2023-03-27T01:35:27.956Z,100947.09
2023-03-27T01:41:07.160Z,100954.63
2023-03-27T01:46:33.707Z,100945.31
2023-03-27T01:52:05.502Z,100945.31
2023-03-27T01:57:30.632Z,100942.81
2023-03-27T02:03:00.279Z,100948.75
2023-03-27T02:08:26.376Z,100954.72
2023-03-27T02:14:13.975Z,100954.63
2023-03-27T02:19:41.092Z,100971.47
2023-03-27T02:25:01.809Z,100963.84
2023-03-27T02:30:40.668Z,100968.84
2023-03-27T02:36:30.968Z,100971.34
2023-03-27T02:42:09.608Z,100974.75
2023-03-27T02:47:35.901Z,100984.91
2023-03-27T02:53:01.713Z,100981.59
2023-03-27T02:58:33.590Z,100973.19
2023-03-27T03:04:34.998Z,100983.34
2023-03-27T03:10:16.627Z,100977.47
2023-03-27T03:15:37.432Z,100991.09
2023-03-27T03:20:58.640Z,100992.88
2023-03-27T03:26:19.089Z,100998.72
2023-03-27T03:31:44.804Z,101033.47
2023-03-27T03:37:10.488Z,101034.81
2023-03-27T03:42:30.958Z,101083.53
2023-03-27T03:47:52.215Z,101069.63
2023-03-27T03:53:14.269Z,101075.25
2023-03-27T03:58:35.260Z,101080.91
2023-03-27T04:03:58.550Z,101067.94
2023-03-27T04:09:23.246Z,101069.66
2023-03-27T04:15:10.155Z,101072.06
2023-03-27T04:21:01.015Z,101067.81
2023-03-27T04:26:26.601Z,101056.94
2023-03-27T04:32:20.255Z,101057.69
2023-03-27T04:38:01.767Z,101065.25
2023-03-27T04:43:40.177Z,101070.50
2023-03-27T04:49:01.183Z,101058.09
2023-03-27T04:54:48.272Z,101086.22
2023-03-27T05:00:15.786Z,101093.19
2023-03-27T05:05:40.998Z,101063.78
2023-03-27T05:11:02.755Z,101093.50
2023-03-27T05:16:33.665Z,101133.94
2023-03-27T05:21:55.525Z,101110.88
2023-03-27T05:27:17.513Z,101119.94
2023-03-27T05:32:48.684Z,101118.88
2023-03-27T05:38:18.409Z,101129.59
2023-03-27T05:43:47.123Z,101133.81
2023-03-27T05:49:11.362Z,101142.06
2023-03-27T05:54:33.862Z,101144.66
2023-03-27T06:00:01.386Z,101148.63
2023-03-27T06:05:26.784Z,101161.34
2023-03-27T06:10:48.064Z,101158.16
2023-03-27T06:16:23.893Z,101164.34
2023-03-27T06:21:46.126Z,101172.25
2023-03-27T06:27:10.744Z,101168.22
2023-03-27T06:32:31.960Z,101174.31
2023-03-27T06:37:53.952Z,101176.34
2023-03-27T06:43:21.480Z,101169.25
2023-03-27T06:48:52.677Z,101179.78
2023-03-27T06:54:14.840Z,101208.94
2023-03-27T06:59:41.229Z,101205.88
2023-03-27T07:05:05.295Z,101212.38
2023-03-27T07:10:33.841Z,101221.09
2023-03-27T07:15:55.418Z,101233.91
2023-03-27T07:21:16.704Z,101218.34
2023-03-27T07:26:37.706Z,101227.66
2023-03-27T07:32:09.510Z,101219.53
2023-03-27T07:37:44.605Z,101228.81
2023-03-27T07:43:23.905Z,101249.78
2023-03-27T07:48:45.332Z,101242.75
2023-03-27T07:54:13.267Z,101249.47
2023-03-27T07:59:41.313Z,101254.81
2023-03-27T08:05:11.218Z,101248.72
2023-03-27T08:10:32.874Z,101255.88
2023-03-27T08:16:03.846Z,101256.00
2023-03-27T08:21:24.495Z,101263.06
2023-03-27T08:26:45.572Z,101260.47
2023-03-27T08:32:09.499Z,101260.97
2023-03-27T08:37:31.369Z,101262.63
2023-03-27T08:43:16.827Z,101261.97
2023-03-27T08:48:47.739Z,101250.41
2023-03-27T08:54:18.195Z,101264.84
2023-03-27T08:59:40.553Z,101271.56
2023-03-27T09:05:26.214Z,101281.06
2023-03-27T09:11:02.393Z,101291.44
2023-03-27T09:16:49.304Z,101296.59
2023-03-27T09:22:28.993Z,101292.41
2023-03-27T09:28:16.481Z,101305.91
2023-03-27T09:33:44.735Z,101296.50
2023-03-27T09:39:08.176Z,101310.16
2023-03-27T09:44:35.996Z,101317.03
2023-03-27T09:50:23.415Z,101322.19
2023-03-27T09:55:58.800Z,101317.94
2023-03-27T10:01:34.578Z,101306.63
2023-03-27T10:07:23.954Z,101322.75
2023-03-27T10:13:13.971Z,101348.38
2023-03-27T10:18:54.907Z,101352.81
2023-03-27T10:24:16.802Z,101315.28
2023-03-27T10:29:55.861Z,101330.66
2023-03-27T10:35:37.176Z,101346.00
2023-03-27T10:41:28.840Z,101334.06
2023-03-27T10:46:53.510Z,101340.78
2023-03-27T10:52:38.549Z,101348.56
2023-03-27T10:58:23.629Z,101377.50
2023-03-27T11:03:51.042Z,101354.22
2023-03-27T11:09:23.359Z,101362.19
2023-03-27T11:15:15.663Z,101371.84
2023-03-27T11:20:47.334Z,101357.63
2023-03-27T11:26:57.871Z,101369.94
2023-03-27T11:32:35.379Z,101384.66
2023-03-27T11:37:59.774Z,101403.00
2023-03-27T11:43:25.337Z,101399.03
2023-03-27T11:49:01.488Z,101411.56
2023-03-27T11:54:48.323Z,101411.81
2023-03-27T12:00:36.510Z,101393.66
2023-03-27T12:06:16.617Z,101438.69
2023-03-27T12:11:43.528Z,101405.34
2023-03-27T12:17:18.116Z,101431.56
2023-03-27T12:23:06.242Z,101441.63
2023-03-27T12:29:23.461Z,101443.91
2023-03-27T12:34:53.152Z,101431.16
2023-03-27T12:40:38.072Z,101422.66
2023-03-27T12:46:31.832Z,101426.53
2023-03-27T12:51:53.683Z,101446.13
2023-03-27T12:57:41.349Z,101442.91
2023-03-27T13:03:33.084Z,101442.63
2023-03-27T13:09:28.289Z,101448.13
2023-03-27T13:22:42.233Z,101429.16
2023-03-27T13:28:25.091Z,101448.66
2023-03-27T13:34:42.468Z,101455.66
2023-03-27T13:40:30.952Z,101428.41
2023-03-27T13:46:06.016Z,101417.75
2023-03-27T13:52:03.783Z,101409.59
2023-03-27T13:57:33.602Z,101415.16
2023-03-27T14:03:31.751Z,101431.06
2023-03-27T14:09:22.112Z,101405.00
2023-03-27T14:15:32.719Z,101420.66
2023-03-27T14:21:35.760Z,101415.84
2023-03-27T14:27:03.519Z,101467.28
2023-03-27T14:32:25.049Z,101479.94
2023-03-27T14:37:55.808Z,101444.50
2023-03-27T14:43:27.634Z,101450.88
2023-03-27T14:48:56.003Z,101422.72
2023-03-27T14:54:26.849Z,101448.50
2023-03-27T14:59:52.599Z,101464.38
2023-03-27T15:05:16.786Z,101474.00
2023-03-27T15:10:40.867Z,101471.84
2023-03-27T15:16:26.903Z,101475.75
2023-03-27T15:21:59.097Z,101462.09
2023-03-27T15:27:30.346Z,101457.91
2023-03-27T15:32:55.172Z,101443.97
2023-03-27T15:38:17.224Z,101445.72
2023-03-27T15:43:37.724Z,101435.13
2023-03-27T15:48:57.928Z,101425.72
2023-03-27T15:54:28.217Z,101436.25
2023-03-27T15:59:51.983Z,101451.59
2023-03-27T16:05:17.705Z,101437.16
2023-03-27T16:10:39.182Z,101442.25
2023-03-27T16:16:02.882Z,101444.81
2023-03-27T16:21:26.987Z,101461.84
2023-03-27T16:26:48.144Z,101472.94
2023-03-27T16:32:12.882Z,101473.78
2023-03-27T16:37:33.423Z,101462.66
2023-03-27T16:42:54.032Z,101471.97
2023-03-27T16:48:14.623Z,101480.44
2023-03-27T16:53:35.867Z,101509.38
2023-03-27T16:58:56.493Z,101522.66
2023-03-27T17:04:17.181Z,101486.59
2023-03-27T17:09:38.027Z,101498.94
2023-03-27T17:14:58.695Z,101474.78
2023-03-27T17:20:19.622Z,101509.97
2023-03-27T17:25:42.845Z,101537.69
2023-03-27T17:31:05.176Z,101527.91
2023-03-27T17:36:38.810Z,101543.44
2023-03-27T17:42:01.898Z,101532.38
2023-03-27T17:47:22.406Z,101541.63
2023-03-27T17:52:42.878Z,101539.03
2023-03-27T17:58:09.408Z,101563.53
2023-03-27T18:03:31.105Z,101546.72
2023-03-27T18:08:51.970Z,101561.31
2023-03-27T18:14:12.769Z,101568.16
2023-03-27T18:19:33.366Z,101550.59
2023-03-27T18:24:53.816Z,101571.06
2023-03-27T18:30:16.049Z,101571.03
2023-03-27T18:35:37.898Z,101597.56
2023-03-27T18:40:59.762Z,101602.50
2023-03-27T18:46:20.688Z,101613.50
2023-03-27T18:51:44.380Z,101616.88
2023-03-27T18:57:05.300Z,101611.75
2023-03-27T19:02:25.878Z,101641.44
2023-03-27T19:07:46.845Z,101647.41
2023-03-27T19:13:07.863Z,101632.88
2023-03-27T19:18:48.457Z,101642.19
2023-03-27T19:24:33.071Z,101648.94
2023-03-27T19:29:55.593Z,101653.28
2023-03-27T19:35:16.382Z,101655.78
2023-03-27T19:40:36.942Z,101662.59
2023-03-27T19:46:14.248Z,101637.47
2023-03-27T19:51:36.324Z,101665.75
2023-03-27T19:56:56.680Z,101687.09
2023-03-27T20:02:17.399Z,101677.63
2023-03-27T20:07:37.828Z,101676.72
2023-03-27T20:12:58.204Z,101674.97
2023-03-27T20:18:19.856Z,101686.06
2023-03-27T20:23:42.025Z,101697.91
2023-03-27T20:29:14.956Z,101743.66
2023-03-27T20:34:35.585Z,101759.59
2023-03-27T20:40:08.452Z,101770.09
2023-03-27T20:45:30.737Z,101772.06
2023-03-27T20:50:52.720Z,101781.84
2023-03-27T20:56:14.261Z,101781.34
2023-03-27T21:01:38.728Z,101792.78
2023-03-27T21:06:59.240Z,101799.16
2023-03-27T21:12:20.146Z,101810.72
2023-03-27T21:17:41.430Z,101817.19
2023-03-27T21:23:02.107Z,101822.84
2023-03-27T21:28:22.715Z,101820.03
2023-03-27T21:33:43.516Z,101824.06
2023-03-27T21:39:04.655Z,101830.06
2023-03-27T21:44:25.300Z,101830.28
2023-03-27T21:49:46.053Z,101827.13
2023-03-27T21:55:08.060Z,101824.50
2023-03-27T22:00:28.667Z,101838.13
2023-03-27T22:05:57.387Z,101846.59
2023-03-27T22:11:21.998Z,101845.91
2023-03-27T22:16:43.403Z,101849.53
2023-03-27T22:22:03.936Z,101856.50
2023-03-27T22:27:24.600Z,101863.09
2023-03-27T22:32:45.846Z,101870.56
2023-03-27T22:38:06.181Z,101885.59
2023-03-27T22:43:28.853Z,101887.19
2023-03-27T22:48:58.723Z,101890.56
2023-03-27T22:54:19.402Z,101901.66
2023-03-27T22:59:40.315Z,101910.72
2023-03-27T23:05:01.871Z,101915.81
2023-03-27T23:10:22.651Z,101927.53
2023-03-27T23:15:42.922Z,101938.41
2023-03-27T23:21:06.272Z,101929.03
2023-03-27T23:26:27.486Z,101938.28
2023-03-27T23:31:48.313Z,101938.28
2023-03-27T23:37:08.824Z,101942.50
2023-03-27T23:42:30.657Z,101934.81
2023-03-27T23:47:51.083Z,101947.59
2023-03-27T23:53:12.105Z,101944.28
2023-03-27T23:58:32.832Z,101947.72
